sensor_id;sensor_type;location;lat;lon;timestamp;P1;durP1;ratioP1;P2;durP2;ratioP2
49842;SDS011;55559;48.898;9.184;2022-11-20T00:00:40;26.42;;;11.63;;
49842;SDS011;55559;48.898;9.184;2022-11-20T00:03:07;21.75;;;11.40;;
49842;SDS011;55559;48.898;9.184;2022-11-20T00:05:36;21.27;;;11.68;;
49842;SDS011;55559;48.898;9.184;2022-11-20T00:08:04;22.05;;;11.38;;
49842;SDS011;55559;48.898;9.184;2022-11-20T00:10:31;25.13;;;14.23;;
49842;SDS011;55559;48.898;9.184;2022-11-20T00:12:59;27.27;;;13.52;;
49842;SDS011;55559;48.898;9.184;2022-11-20T00:15:27;27.40;;;15.00;;
49842;SDS011;55559;48.898;9.184;2022-11-20T00:17:54;25.98;;;15.93;;
49842;SDS011;55559;48.898;9.184;2022-11-20T00:20:22;28.55;;;17.13;;
49842;SDS011;55559;48.898;9.184;2022-11-20T00:22:51;30.50;;;19.58;;
49842;SDS011;55559;48.898;9.184;2022-11-20T00:25:18;28.75;;;18.77;;
49842;SDS011;55559;48.898;9.184;2022-11-20T00:27:46;27.58;;;16.83;;
49842;SDS011;55559;48.898;9.184;2022-11-20T00:30:19;34.80;;;13.55;;
49842;SDS011;55559;48.898;9.184;2022-11-20T00:32:47;20.13;;;12.35;;
49842;SDS011;55559;48.898;9.184;2022-11-20T00:35:14;22.23;;;12.00;;
49842;SDS011;55559;48.898;9.184;2022-11-20T00:37:42;22.15;;;12.73;;
49842;SDS011;55559;48.898;9.184;2022-11-20T00:40:11;25.98;;;13.82;;
49842;SDS011;55559;48.898;9.184;2022-11-20T00:42:39;28.05;;;12.93;;
49842;SDS011;55559;48.898;9.184;2022-11-20T00:45:07;26.48;;;13.88;;
49842;SDS011;55559;48.898;9.184;2022-11-20T00:47:35;27.17;;;12.77;;
49842;SDS011;55559;48.898;9.184;2022-11-20T00:50:02;30.45;;;14.80;;
49842;SDS011;55559;48.898;9.184;2022-11-20T00:52:30;28.50;;;13.90;;
49842;SDS011;55559;48.898;9.184;2022-11-20T00:54:57;34.63;;;14.45;;
49842;SDS011;55559;48.898;9.184;2022-11-20T00:57:26;27.08;;;13.90;;
49842;SDS011;55559;48.898;9.184;2022-11-20T00:59:54;29.17;;;15.43;;
49842;SDS011;55559;48.898;9.184;2022-11-20T01:02:21;26.38;;;14.00;;
49842;SDS011;55559;48.898;9.184;2022-11-20T01:04:48;26.48;;;14.68;;
49842;SDS011;55559;48.898;9.184;2022-11-20T01:07:16;27.15;;;13.80;;
49842;SDS011;55559;48.898;9.184;2022-11-20T01:09:43;30.00;;;14.95;;
49842;SDS011;55559;48.898;9.184;2022-11-20T01:12:11;30.42;;;13.80;;
49842;SDS011;55559;48.898;9.184;2022-11-20T01:14:39;27.52;;;13.15;;
49842;SDS011;55559;48.898;9.184;2022-11-20T01:17:07;23.30;;;13.02;;
49842;SDS011;55559;48.898;9.184;2022-11-20T01:19:34;28.20;;;14.25;;
49842;SDS011;55559;48.898;9.184;2022-11-20T01:22:02;25.40;;;13.82;;
49842;SDS011;55559;48.898;9.184;2022-11-20T01:24:29;32.05;;;16.50;;
49842;SDS011;55559;48.898;9.184;2022-11-20T01:26:57;30.95;;;14.57;;
49842;SDS011;55559;48.898;9.184;2022-11-20T01:29:26;27.83;;;15.13;;
49842;SDS011;55559;48.898;9.184;2022-11-20T01:31:55;24.52;;;12.52;;
49842;SDS011;55559;48.898;9.184;2022-11-20T01:34:23;28.67;;;14.02;;
49842;SDS011;55559;48.898;9.184;2022-11-20T01:36:50;36.88;;;14.30;;
49842;SDS011;55559;48.898;9.184;2022-11-20T01:39:18;20.40;;;11.93;;
49842;SDS011;55559;48.898;9.184;2022-11-20T01:41:47;24.13;;;13.40;;
49842;SDS011;55559;48.898;9.184;2022-11-20T01:44:50;26.13;;;13.43;;
49842;SDS011;55559;48.898;9.184;2022-11-20T01:47:23;36.22;;;15.35;;
49842;SDS011;55559;48.898;9.184;2022-11-20T01:49:56;24.58;;;13.48;;
49842;SDS011;55559;48.898;9.184;2022-11-20T01:52:30;27.10;;;15.63;;
49842;SDS011;55559;48.898;9.184;2022-11-20T01:55:04;29.45;;;16.05;;
49842;SDS011;55559;48.898;9.184;2022-11-20T01:57:34;24.45;;;14.48;;
49842;SDS011;55559;48.898;9.184;2022-11-20T02:00:04;21.60;;;13.60;;
49842;SDS011;55559;48.898;9.184;2022-11-20T02:02:42;21.20;;;12.75;;
49842;SDS011;55559;48.898;9.184;2022-11-20T02:05:17;17.52;;;11.55;;
49842;SDS011;55559;48.898;9.184;2022-11-20T02:07:49;18.63;;;11.40;;
49842;SDS011;55559;48.898;9.184;2022-11-20T02:10:17;17.60;;;10.52;;
49842;SDS011;55559;48.898;9.184;2022-11-20T02:12:45;15.30;;;9.93;;
49842;SDS011;55559;48.898;9.184;2022-11-20T02:15:30;13.20;;;9.43;;
49842;SDS011;55559;48.898;9.184;2022-11-20T02:18:00;11.55;;;9.50;;
49842;SDS011;55559;48.898;9.184;2022-11-20T02:20:28;14.20;;;9.00;;
49842;SDS011;55559;48.898;9.184;2022-11-20T02:22:56;14.60;;;9.57;;
49842;SDS011;55559;48.898;9.184;2022-11-20T02:25:38;14.55;;;9.35;;
49842;SDS011;55559;48.898;9.184;2022-11-20T02:28:08;18.13;;;11.10;;
49842;SDS011;55559;48.898;9.184;2022-11-20T02:30:36;12.90;;;8.45;;
49842;SDS011;55559;48.898;9.184;2022-11-20T02:33:04;11.90;;;8.05;;
49842;SDS011;55559;48.898;9.184;2022-11-20T02:35:39;11.45;;;7.80;;
49842;SDS011;55559;48.898;9.184;2022-11-20T02:38:09;11.40;;;7.47;;
49842;SDS011;55559;48.898;9.184;2022-11-20T02:40:39;15.82;;;7.97;;
49842;SDS011;55559;48.898;9.184;2022-11-20T02:43:07;12.88;;;7.70;;
49842;SDS011;55559;48.898;9.184;2022-11-20T02:45:34;11.70;;;7.80;;
49842;SDS011;55559;48.898;9.184;2022-11-20T02:48:02;7.93;;;6.50;;
49842;SDS011;55559;48.898;9.184;2022-11-20T02:50:30;11.82;;;7.07;;
49842;SDS011;55559;48.898;9.184;2022-11-20T02:52:57;10.75;;;6.90;;
49842;SDS011;55559;48.898;9.184;2022-11-20T02:55:25;7.25;;;5.18;;
49842;SDS011;55559;48.898;9.184;2022-11-20T02:57:54;10.05;;;6.43;;
49842;SDS011;55559;48.898;9.184;2022-11-20T03:00:21;8.50;;;6.35;;
49842;SDS011;55559;48.898;9.184;2022-11-20T03:02:49;15.30;;;6.72;;
49842;SDS011;55559;48.898;9.184;2022-11-20T03:05:16;10.90;;;6.18;;
49842;SDS011;55559;48.898;9.184;2022-11-20T03:07:44;6.55;;;4.25;;
49842;SDS011;55559;48.898;9.184;2022-11-20T03:10:11;9.73;;;3.75;;
49842;SDS011;55559;48.898;9.184;2022-11-20T03:12:39;4.82;;;3.00;;
49842;SDS011;55559;48.898;9.184;2022-11-20T03:15:08;4.45;;;2.53;;
49842;SDS011;55559;48.898;9.184;2022-11-20T03:17:36;8.07;;;2.97;;
49842;SDS011;55559;48.898;9.184;2022-11-20T03:20:04;4.35;;;3.55;;
49842;SDS011;55559;48.898;9.184;2022-11-20T03:22:33;6.35;;;3.30;;
49842;SDS011;55559;48.898;9.184;2022-11-20T03:25:00;5.10;;;2.90;;
49842;SDS011;55559;48.898;9.184;2022-11-20T03:27:31;2.97;;;2.22;;
49842;SDS011;55559;48.898;9.184;2022-11-20T03:29:59;5.47;;;2.58;;
49842;SDS011;55559;48.898;9.184;2022-11-20T03:32:28;9.05;;;2.47;;
49842;SDS011;55559;48.898;9.184;2022-11-20T03:34:56;8.85;;;3.25;;
49842;SDS011;55559;48.898;9.184;2022-11-20T03:37:23;7.60;;;3.58;;
49842;SDS011;55559;48.898;9.184;2022-11-20T03:39:51;5.97;;;3.42;;
49842;SDS011;55559;48.898;9.184;2022-11-20T03:42:18;8.57;;;3.15;;
49842;SDS011;55559;48.898;9.184;2022-11-20T03:45:03;5.43;;;3.22;;
49842;SDS011;55559;48.898;9.184;2022-11-20T03:47:33;7.63;;;2.42;;
49842;SDS011;55559;48.898;9.184;2022-11-20T03:50:00;3.75;;;1.98;;
49842;SDS011;55559;48.898;9.184;2022-11-20T03:52:28;3.47;;;2.10;;
49842;SDS011;55559;48.898;9.184;2022-11-20T03:54:55;3.20;;;1.50;;
49842;SDS011;55559;48.898;9.184;2022-11-20T03:57:23;3.60;;;1.25;;
49842;SDS011;55559;48.898;9.184;2022-11-20T03:59:50;3.13;;;1.50;;
49842;SDS011;55559;48.898;9.184;2022-11-20T04:02:18;2.72;;;0.90;;
49842;SDS011;55559;48.898;9.184;2022-11-20T04:04:46;2.80;;;0.90;;
49842;SDS011;55559;48.898;9.184;2022-11-20T04:07:14;5.38;;;1.10;;
49842;SDS011;55559;48.898;9.184;2022-11-20T04:09:41;6.53;;;0.98;;
49842;SDS011;55559;48.898;9.184;2022-11-20T04:12:09;4.65;;;0.95;;
49842;SDS011;55559;48.898;9.184;2022-11-20T04:14:36;1.23;;;0.80;;
49842;SDS011;55559;48.898;9.184;2022-11-20T04:17:03;2.67;;;0.95;;
49842;SDS011;55559;48.898;9.184;2022-11-20T04:19:31;2.40;;;0.90;;
49842;SDS011;55559;48.898;9.184;2022-11-20T04:22:00;3.38;;;0.80;;
49842;SDS011;55559;48.898;9.184;2022-11-20T04:24:27;4.95;;;0.73;;
49842;SDS011;55559;48.898;9.184;2022-11-20T04:26:55;2.60;;;0.93;;
49842;SDS011;55559;48.898;9.184;2022-11-20T04:29:22;2.58;;;1.05;;
49842;SDS011;55559;48.898;9.184;2022-11-20T04:31:50;6.13;;;1.15;;
49842;SDS011;55559;48.898;9.184;2022-11-20T04:34:17;4.25;;;1.13;;
49842;SDS011;55559;48.898;9.184;2022-11-20T04:36:45;2.25;;;1.15;;
49842;SDS011;55559;48.898;9.184;2022-11-20T04:39:14;4.13;;;1.10;;
49842;SDS011;55559;48.898;9.184;2022-11-20T04:41:42;3.50;;;1.02;;
49842;SDS011;55559;48.898;9.184;2022-11-20T04:44:09;4.15;;;1.05;;
49842;SDS011;55559;48.898;9.184;2022-11-20T04:46:38;6.05;;;0.82;;
49842;SDS011;55559;48.898;9.184;2022-11-20T04:49:07;5.18;;;1.23;;
49842;SDS011;55559;48.898;9.184;2022-11-20T04:51:35;3.70;;;1.02;;
49842;SDS011;55559;48.898;9.184;2022-11-20T04:54:02;5.07;;;1.08;;
49842;SDS011;55559;48.898;9.184;2022-11-20T04:56:31;1.90;;;0.90;;
49842;SDS011;55559;48.898;9.184;2022-11-20T04:59:00;1.88;;;0.95;;
49842;SDS011;55559;48.898;9.184;2022-11-20T05:01:28;3.78;;;1.10;;
49842;SDS011;55559;48.898;9.184;2022-11-20T05:03:55;2.25;;;0.93;;
49842;SDS011;55559;48.898;9.184;2022-11-20T05:06:23;2.90;;;1.10;;
49842;SDS011;55559;48.898;9.184;2022-11-20T05:08:50;3.10;;;0.80;;
49842;SDS011;55559;48.898;9.184;2022-11-20T05:11:18;4.38;;;1.30;;
49842;SDS011;55559;48.898;9.184;2022-11-20T05:13:48;5.15;;;1.95;;
49842;SDS011;55559;48.898;9.184;2022-11-20T05:16:17;5.88;;;1.00;;
49842;SDS011;55559;48.898;9.184;2022-11-20T05:18:45;2.75;;;0.90;;
49842;SDS011;55559;48.898;9.184;2022-11-20T05:21:13;1.30;;;0.88;;
49842;SDS011;55559;48.898;9.184;2022-11-20T05:23:41;3.28;;;1.00;;
49842;SDS011;55559;48.898;9.184;2022-11-20T05:26:12;4.75;;;1.20;;
49842;SDS011;55559;48.898;9.184;2022-11-20T05:28:40;1.92;;;1.00;;
49842;SDS011;55559;48.898;9.184;2022-11-20T05:31:10;3.67;;;1.00;;
49842;SDS011;55559;48.898;9.184;2022-11-20T05:33:39;2.10;;;1.17;;
49842;SDS011;55559;48.898;9.184;2022-11-20T05:36:08;2.70;;;0.90;;
49842;SDS011;55559;48.898;9.184;2022-11-20T05:38:36;2.65;;;1.02;;
49842;SDS011;55559;48.898;9.184;2022-11-20T05:41:04;1.80;;;1.13;;
49842;SDS011;55559;48.898;9.184;2022-11-20T05:43:32;2.90;;;1.00;;
49842;SDS011;55559;48.898;9.184;2022-11-20T05:46:01;2.50;;;1.42;;
49842;SDS011;55559;48.898;9.184;2022-11-20T05:48:31;2.17;;;1.30;;
49842;SDS011;55559;48.898;9.184;2022-11-20T05:50:59;2.88;;;1.15;;
49842;SDS011;55559;48.898;9.184;2022-11-20T05:53:27;3.33;;;0.93;;
49842;SDS011;55559;48.898;9.184;2022-11-20T05:55:58;4.68;;;1.13;;
49842;SDS011;55559;48.898;9.184;2022-11-20T05:58:26;1.90;;;1.10;;
49842;SDS011;55559;48.898;9.184;2022-11-20T06:00:54;4.72;;;1.00;;
49842;SDS011;55559;48.898;9.184;2022-11-20T06:03:21;1.95;;;0.95;;
49842;SDS011;55559;48.898;9.184;2022-11-20T06:05:50;4.95;;;1.05;;
49842;SDS011;55559;48.898;9.184;2022-11-20T06:08:18;1.25;;;0.70;;
49842;SDS011;55559;48.898;9.184;2022-11-20T06:10:45;2.53;;;0.80;;
49842;SDS011;55559;48.898;9.184;2022-11-20T06:13:12;4.38;;;1.15;;
49842;SDS011;55559;48.898;9.184;2022-11-20T06:15:40;1.77;;;1.00;;
49842;SDS011;55559;48.898;9.184;2022-11-20T06:18:07;1.38;;;0.70;;
49842;SDS011;55559;48.898;9.184;2022-11-20T06:20:34;1.45;;;0.77;;
49842;SDS011;55559;48.898;9.184;2022-11-20T06:23:04;1.80;;;0.93;;
49842;SDS011;55559;48.898;9.184;2022-11-20T06:25:31;6.95;;;1.67;;
49842;SDS011;55559;48.898;9.184;2022-11-20T06:27:58;2.85;;;1.00;;
49842;SDS011;55559;48.898;9.184;2022-11-20T06:30:26;5.18;;;1.00;;
49842;SDS011;55559;48.898;9.184;2022-11-20T06:32:53;2.67;;;1.40;;
49842;SDS011;55559;48.898;9.184;2022-11-20T06:35:20;5.03;;;1.13;;
49842;SDS011;55559;48.898;9.184;2022-11-20T06:37:48;3.08;;;1.10;;
49842;SDS011;55559;48.898;9.184;2022-11-20T06:40:17;5.57;;;1.27;;
49842;SDS011;55559;48.898;9.184;2022-11-20T06:42:44;3.90;;;1.48;;
49842;SDS011;55559;48.898;9.184;2022-11-20T06:45:12;1.77;;;0.98;;
49842;SDS011;55559;48.898;9.184;2022-11-20T06:47:39;2.67;;;1.35;;
49842;SDS011;55559;48.898;9.184;2022-11-20T06:50:07;6.35;;;1.15;;
49842;SDS011;55559;48.898;9.184;2022-11-20T06:52:35;3.45;;;0.93;;
49842;SDS011;55559;48.898;9.184;2022-11-20T06:55:03;2.58;;;0.95;;
49842;SDS011;55559;48.898;9.184;2022-11-20T06:57:32;2.00;;;1.15;;
49842;SDS011;55559;48.898;9.184;2022-11-20T07:00:00;3.60;;;0.70;;
49842;SDS011;55559;48.898;9.184;2022-11-20T07:02:28;1.65;;;1.10;;
49842;SDS011;55559;48.898;9.184;2022-11-20T07:04:55;1.77;;;0.77;;
49842;SDS011;55559;48.898;9.184;2022-11-20T07:07:22;2.47;;;0.90;;
49842;SDS011;55559;48.898;9.184;2022-11-20T07:09:50;4.65;;;0.88;;
49842;SDS011;55559;48.898;9.184;2022-11-20T07:12:17;3.60;;;1.00;;
49842;SDS011;55559;48.898;9.184;2022-11-20T07:14:46;1.38;;;0.68;;
49842;SDS011;55559;48.898;9.184;2022-11-20T07:17:14;2.28;;;0.93;;
49842;SDS011;55559;48.898;9.184;2022-11-20T07:19:41;2.90;;;1.10;;
49842;SDS011;55559;48.898;9.184;2022-11-20T07:22:09;2.42;;;1.42;;
49842;SDS011;55559;48.898;9.184;2022-11-20T07:24:36;1.50;;;0.70;;
49842;SDS011;55559;48.898;9.184;2022-11-20T07:27:04;4.90;;;1.08;;
49842;SDS011;55559;48.898;9.184;2022-11-20T07:29:31;5.10;;;2.00;;
49842;SDS011;55559;48.898;9.184;2022-11-20T07:32:00;1.85;;;0.82;;
49842;SDS011;55559;48.898;9.184;2022-11-20T07:34:27;1.48;;;0.77;;
49842;SDS011;55559;48.898;9.184;2022-11-20T07:36:55;7.55;;;1.40;;
49842;SDS011;55559;48.898;9.184;2022-11-20T07:39:22;2.13;;;0.68;;
49842;SDS011;55559;48.898;9.184;2022-11-20T07:41:50;2.78;;;1.30;;
49842;SDS011;55559;48.898;9.184;2022-11-20T07:44:17;2.60;;;1.25;;
49842;SDS011;55559;48.898;9.184;2022-11-20T07:46:45;4.00;;;2.10;;
49842;SDS011;55559;48.898;9.184;2022-11-20T07:49:14;11.60;;;5.80;;
49842;SDS011;55559;48.898;9.184;2022-11-20T07:51:41;1.60;;;0.68;;
49842;SDS011;55559;48.898;9.184;2022-11-20T07:54:09;2.92;;;0.60;;
49842;SDS011;55559;48.898;9.184;2022-11-20T07:56:36;2.13;;;0.70;;
49842;SDS011;55559;48.898;9.184;2022-11-20T07:59:03;1.38;;;0.70;;
49842;SDS011;55559;48.898;9.184;2022-11-20T08:01:31;4.50;;;0.60;;
49842;SDS011;55559;48.898;9.184;2022-11-20T08:03:58;2.38;;;0.50;;
49842;SDS011;55559;48.898;9.184;2022-11-20T08:06:27;9.98;;;0.70;;
49842;SDS011;55559;48.898;9.184;2022-11-20T08:08:58;1.42;;;0.50;;
49842;SDS011;55559;48.898;9.184;2022-11-20T08:11:25;1.17;;;0.50;;
49842;SDS011;55559;48.898;9.184;2022-11-20T08:14:10;1.60;;;0.50;;
49842;SDS011;55559;48.898;9.184;2022-11-20T08:16:41;9.75;;;3.13;;
49842;SDS011;55559;48.898;9.184;2022-11-20T08:19:09;2.65;;;1.23;;
49842;SDS011;55559;48.898;9.184;2022-11-20T08:21:38;2.00;;;1.20;;
49842;SDS011;55559;48.898;9.184;2022-11-20T08:24:06;1.08;;;0.55;;
49842;SDS011;55559;48.898;9.184;2022-11-20T08:26:34;1.83;;;0.57;;
49842;SDS011;55559;48.898;9.184;2022-11-20T08:29:03;39.15;;;28.48;;
49842;SDS011;55559;48.898;9.184;2022-11-20T08:31:31;5.40;;;4.85;;
49842;SDS011;55559;48.898;9.184;2022-11-20T08:33:59;2.65;;;0.47;;
49842;SDS011;55559;48.898;9.184;2022-11-20T08:36:27;2.70;;;0.40;;
49842;SDS011;55559;48.898;9.184;2022-11-20T08:38:55;0.70;;;0.30;;
49842;SDS011;55559;48.898;9.184;2022-11-20T08:41:23;4.47;;;0.65;;
49842;SDS011;55559;48.898;9.184;2022-11-20T08:43:51;0.32;;;0.17;;
49842;SDS011;55559;48.898;9.184;2022-11-20T08:46:20;0.57;;;0.20;;
49842;SDS011;55559;48.898;9.184;2022-11-20T08:48:48;1.00;;;0.20;;
49842;SDS011;55559;48.898;9.184;2022-11-20T08:51:16;0.85;;;0.30;;
49842;SDS011;55559;48.898;9.184;2022-11-20T08:53:43;0.57;;;0.17;;
49842;SDS011;55559;48.898;9.184;2022-11-20T08:56:13;0.82;;;0.20;;
49842;SDS011;55559;48.898;9.184;2022-11-20T08:58:41;0.82;;;0.10;;
49842;SDS011;55559;48.898;9.184;2022-11-20T09:01:08;1.38;;;0.20;;
49842;SDS011;55559;48.898;9.184;2022-11-20T09:03:36;1.80;;;0.10;;
49842;SDS011;55559;48.898;9.184;2022-11-20T09:06:05;8.18;;;4.55;;
49842;SDS011;55559;48.898;9.184;2022-11-20T09:08:34;0.88;;;0.30;;
49842;SDS011;55559;48.898;9.184;2022-11-20T09:11:02;1.42;;;0.70;;
49842;SDS011;55559;48.898;9.184;2022-11-20T09:13:31;1.25;;;0.30;;
49842;SDS011;55559;48.898;9.184;2022-11-20T09:16:00;18.42;;;10.95;;
49842;SDS011;55559;48.898;9.184;2022-11-20T09:18:29;3.50;;;1.38;;
49842;SDS011;55559;48.898;9.184;2022-11-20T09:20:58;10.30;;;8.57;;
49842;SDS011;55559;48.898;9.184;2022-11-20T09:23:26;1.65;;;0.75;;
49842;SDS011;55559;48.898;9.184;2022-11-20T09:25:53;0.93;;;0.20;;
49842;SDS011;55559;48.898;9.184;2022-11-20T09:28:25;4.95;;;0.30;;
49842;SDS011;55559;48.898;9.184;2022-11-20T09:30:53;0.45;;;0.20;;
49842;SDS011;55559;48.898;9.184;2022-11-20T09:33:21;0.55;;;0.10;;
49842;SDS011;55559;48.898;9.184;2022-11-20T09:35:49;1.20;;;0.50;;
49842;SDS011;55559;48.898;9.184;2022-11-20T09:38:16;7.97;;;7.15;;
49842;SDS011;55559;48.898;9.184;2022-11-20T09:40:45;23.92;;;18.15;;
49842;SDS011;55559;48.898;9.184;2022-11-20T09:43:18;3.25;;;2.50;;
49842;SDS011;55559;48.898;9.184;2022-11-20T09:45:56;2.03;;;0.93;;
49842;SDS011;55559;48.898;9.184;2022-11-20T09:48:37;1.40;;;0.10;;
49842;SDS011;55559;48.898;9.184;2022-11-20T09:51:18;0.50;;;0.15;;
49842;SDS011;55559;48.898;9.184;2022-11-20T09:54:00;0.60;;;0.20;;
49842;SDS011;55559;48.898;9.184;2022-11-20T09:56:37;0.57;;;0.20;;
49842;SDS011;55559;48.898;9.184;2022-11-20T09:59:12;0.95;;;0.20;;
49842;SDS011;55559;48.898;9.184;2022-11-20T10:01:51;1.02;;;0.30;;
49842;SDS011;55559;48.898;9.184;2022-11-20T10:04:21;0.55;;;0.13;;
49842;SDS011;55559;48.898;9.184;2022-11-20T10:06:51;2.85;;;0.20;;
49842;SDS011;55559;48.898;9.184;2022-11-20T10:09:24;0.32;;;0.20;;
49842;SDS011;55559;48.898;9.184;2022-11-20T10:11:59;1.10;;;0.13;;
49842;SDS011;55559;48.898;9.184;2022-11-20T10:14:38;0.75;;;0.20;;
49842;SDS011;55559;48.898;9.184;2022-11-20T10:17:20;1.17;;;0.28;;
49842;SDS011;55559;48.898;9.184;2022-11-20T10:20:05;1.45;;;0.30;;
49842;SDS011;55559;48.898;9.184;2022-11-20T10:22:47;1.20;;;0.52;;
49842;SDS011;55559;48.898;9.184;2022-11-20T10:25:30;7.75;;;2.88;;
49842;SDS011;55559;48.898;9.184;2022-11-20T10:28:09;22.58;;;9.32;;
49842;SDS011;55559;48.898;9.184;2022-11-20T10:30:48;3.63;;;1.65;;
49842;SDS011;55559;48.898;9.184;2022-11-20T10:33:24;0.60;;;0.30;;
49842;SDS011;55559;48.898;9.184;2022-11-20T10:35:55;0.90;;;0.30;;
49842;SDS011;55559;48.898;9.184;2022-11-20T10:38:29;0.50;;;0.30;;
49842;SDS011;55559;48.898;9.184;2022-11-20T10:41:03;1.33;;;0.40;;
49842;SDS011;55559;48.898;9.184;2022-11-20T10:43:50;0.77;;;0.30;;
49842;SDS011;55559;48.898;9.184;2022-11-20T10:46:23;2.55;;;0.52;;
49842;SDS011;55559;48.898;9.184;2022-11-20T10:48:53;0.93;;;0.50;;
49842;SDS011;55559;48.898;9.184;2022-11-20T10:51:25;2.13;;;0.63;;
49842;SDS011;55559;48.898;9.184;2022-11-20T10:54:04;1.90;;;0.80;;
49842;SDS011;55559;48.898;9.184;2022-11-20T10:56:40;0.80;;;0.30;;
49842;SDS011;55559;48.898;9.184;2022-11-20T11:02:17;3.45;;;0.70;;
49842;SDS011;55559;48.898;9.184;2022-11-20T11:04:49;5.35;;;0.60;;
49842;SDS011;55559;48.898;9.184;2022-11-20T11:07:19;5.10;;;1.52;;
49842;SDS011;55559;48.898;9.184;2022-11-20T11:09:50;2.83;;;1.00;;
49842;SDS011;55559;48.898;9.184;2022-11-20T11:12:20;4.15;;;1.00;;
49842;SDS011;55559;48.898;9.184;2022-11-20T11:14:49;4.30;;;1.02;;
49842;SDS011;55559;48.898;9.184;2022-11-20T11:17:20;5.93;;;0.80;;
49842;SDS011;55559;48.898;9.184;2022-11-20T11:20:03;2.72;;;1.30;;
49842;SDS011;55559;48.898;9.184;2022-11-20T11:22:34;7.30;;;1.60;;
49842;SDS011;55559;48.898;9.184;2022-11-20T11:25:12;2.55;;;0.65;;
49842;SDS011;55559;48.898;9.184;2022-11-20T11:27:47;3.83;;;1.45;;
49842;SDS011;55559;48.898;9.184;2022-11-20T11:30:16;3.45;;;0.98;;
49842;SDS011;55559;48.898;9.184;2022-11-20T11:32:45;3.22;;;0.80;;
49842;SDS011;55559;48.898;9.184;2022-11-20T11:35:21;2.45;;;0.75;;
49842;SDS011;55559;48.898;9.184;2022-11-20T11:37:52;6.25;;;1.98;;
49842;SDS011;55559;48.898;9.184;2022-11-20T11:40:28;1.83;;;0.80;;
49842;SDS011;55559;48.898;9.184;2022-11-20T11:42:59;1.90;;;0.93;;
49842;SDS011;55559;48.898;9.184;2022-11-20T11:45:52;7.38;;;0.90;;
49842;SDS011;55559;48.898;9.184;2022-11-20T11:48:19;3.00;;;0.40;;
49842;SDS011;55559;48.898;9.184;2022-11-20T11:50:49;5.78;;;0.40;;
49842;SDS011;55559;48.898;9.184;2022-11-20T11:53:18;5.85;;;1.77;;
49842;SDS011;55559;48.898;9.184;2022-11-20T11:55:50;3.33;;;0.40;;
49842;SDS011;55559;48.898;9.184;2022-11-20T11:58:33;2.53;;;0.90;;
49842;SDS011;55559;48.898;9.184;2022-11-20T12:01:20;8.75;;;0.52;;
49842;SDS011;55559;48.898;9.184;2022-11-20T12:03:55;2.15;;;0.40;;
49842;SDS011;55559;48.898;9.184;2022-11-20T12:06:32;3.47;;;0.60;;
49842;SDS011;55559;48.898;9.184;2022-11-20T12:11:37;3.10;;;0.40;;
49842;SDS011;55559;48.898;9.184;2022-11-20T12:14:11;6.57;;;2.40;;
49842;SDS011;55559;48.898;9.184;2022-11-20T12:16:45;4.53;;;1.38;;
49842;SDS011;55559;48.898;9.184;2022-11-20T12:19:13;6.30;;;0.75;;
49842;SDS011;55559;48.898;9.184;2022-11-20T12:21:45;5.70;;;0.30;;
49842;SDS011;55559;48.898;9.184;2022-11-20T12:24:37;5.15;;;0.40;;
49842;SDS011;55559;48.898;9.184;2022-11-20T12:27:21;5.50;;;1.25;;
49842;SDS011;55559;48.898;9.184;2022-11-20T12:30:14;1.25;;;0.30;;
49842;SDS011;55559;48.898;9.184;2022-11-20T12:32:50;5.07;;;0.55;;
49842;SDS011;55559;48.898;9.184;2022-11-20T12:35:54;1.23;;;0.40;;
49842;SDS011;55559;48.898;9.184;2022-11-20T12:41:42;6.28;;;0.30;;
49842;SDS011;55559;48.898;9.184;2022-11-20T12:44:36;1.75;;;0.20;;
49842;SDS011;55559;48.898;9.184;2022-11-20T12:47:39;3.78;;;0.50;;
49842;SDS011;55559;48.898;9.184;2022-11-20T12:50:26;1.13;;;0.20;;
49842;SDS011;55559;48.898;9.184;2022-11-20T12:53:01;5.03;;;0.20;;
49842;SDS011;55559;48.898;9.184;2022-11-20T12:55:35;3.28;;;0.20;;
49842;SDS011;55559;48.898;9.184;2022-11-20T12:58:11;1.65;;;0.35;;
49842;SDS011;55559;48.898;9.184;2022-11-20T13:00:47;1.08;;;0.20;;
49842;SDS011;55559;48.898;9.184;2022-11-20T13:03:29;2.63;;;1.08;;
49842;SDS011;55559;48.898;9.184;2022-11-20T13:06:10;1.52;;;0.30;;
49842;SDS011;55559;48.898;9.184;2022-11-20T13:08:40;0.30;;;0.10;;
49842;SDS011;55559;48.898;9.184;2022-11-20T13:11:13;1.67;;;0.20;;
49842;SDS011;55559;48.898;9.184;2022-11-20T13:13:59;1.05;;;0.20;;
49842;SDS011;55559;48.898;9.184;2022-11-20T13:16:47;1.25;;;0.30;;
49842;SDS011;55559;48.898;9.184;2022-11-20T13:19:19;1.48;;;0.13;;
49842;SDS011;55559;48.898;9.184;2022-11-20T13:21:48;1.20;;;0.20;;
49842;SDS011;55559;48.898;9.184;2022-11-20T13:24:20;0.75;;;0.10;;
49842;SDS011;55559;48.898;9.184;2022-11-20T13:27:17;1.30;;;0.20;;
49842;SDS011;55559;48.898;9.184;2022-11-20T13:29:47;5.70;;;0.30;;
49842;SDS011;55559;48.898;9.184;2022-11-20T13:32:27;8.45;;;1.27;;
49842;SDS011;55559;48.898;9.184;2022-11-20T13:34:58;3.03;;;0.30;;
49842;SDS011;55559;48.898;9.184;2022-11-20T13:37:29;3.13;;;0.20;;
49842;SDS011;55559;48.898;9.184;2022-11-20T13:40:05;5.47;;;1.10;;
49842;SDS011;55559;48.898;9.184;2022-11-20T13:42:43;1.15;;;0.22;;
49842;SDS011;55559;48.898;9.184;2022-11-20T13:45:21;1.15;;;0.20;;
49842;SDS011;55559;48.898;9.184;2022-11-20T13:47:50;5.22;;;0.20;;
49842;SDS011;55559;48.898;9.184;2022-11-20T13:50:19;2.42;;;0.35;;
49842;SDS011;55559;48.898;9.184;2022-11-20T13:52:58;1.00;;;0.17;;
49842;SDS011;55559;48.898;9.184;2022-11-20T13:55:35;1.73;;;0.30;;
49842;SDS011;55559;48.898;9.184;2022-11-20T13:58:20;1.77;;;0.20;;
49842;SDS011;55559;48.898;9.184;2022-11-20T14:01:00;4.93;;;0.82;;
49842;SDS011;55559;48.898;9.184;2022-11-20T14:03:36;1.40;;;0.10;;
49842;SDS011;55559;48.898;9.184;2022-11-20T14:06:05;1.70;;;0.73;;
49842;SDS011;55559;48.898;9.184;2022-11-20T14:08:41;1.20;;;0.20;;
49842;SDS011;55559;48.898;9.184;2022-11-20T14:11:13;1.40;;;0.20;;
49842;SDS011;55559;48.898;9.184;2022-11-20T14:13:54;5.18;;;0.20;;
49842;SDS011;55559;48.898;9.184;2022-11-20T14:16:24;2.53;;;0.30;;
49842;SDS011;55559;48.898;9.184;2022-11-20T14:18:53;1.75;;;0.20;;
49842;SDS011;55559;48.898;9.184;2022-11-20T14:21:21;1.88;;;0.15;;
49842;SDS011;55559;48.898;9.184;2022-11-20T14:23:52;1.75;;;0.25;;
49842;SDS011;55559;48.898;9.184;2022-11-20T14:26:20;1.58;;;0.20;;
49842;SDS011;55559;48.898;9.184;2022-11-20T14:28:48;3.35;;;0.30;;
49842;SDS011;55559;48.898;9.184;2022-11-20T14:31:21;1.48;;;0.30;;
49842;SDS011;55559;48.898;9.184;2022-11-20T14:33:51;2.80;;;0.30;;
49842;SDS011;55559;48.898;9.184;2022-11-20T14:36:21;1.17;;;0.30;;
49842;SDS011;55559;48.898;9.184;2022-11-20T14:38:50;4.22;;;0.50;;
49842;SDS011;55559;48.898;9.184;2022-11-20T14:41:18;3.80;;;0.55;;
49842;SDS011;55559;48.898;9.184;2022-11-20T14:43:47;1.90;;;0.35;;
49842;SDS011;55559;48.898;9.184;2022-11-20T14:48:50;3.92;;;0.40;;
49842;SDS011;55559;48.898;9.184;2022-11-20T14:51:28;4.22;;;0.40;;
49842;SDS011;55559;48.898;9.184;2022-11-20T14:54:08;4.70;;;0.60;;
49842;SDS011;55559;48.898;9.184;2022-11-20T14:56:36;6.00;;;0.80;;
49842;SDS011;55559;48.898;9.184;2022-11-20T14:59:04;5.68;;;0.55;;
49842;SDS011;55559;48.898;9.184;2022-11-20T15:01:33;40.25;;;14.63;;
49842;SDS011;55559;48.898;9.184;2022-11-20T15:04:01;3.83;;;1.85;;
49842;SDS011;55559;48.898;9.184;2022-11-20T15:06:35;7.15;;;5.22;;
49842;SDS011;55559;48.898;9.184;2022-11-20T15:09:03;19.75;;;14.70;;
49842;SDS011;55559;48.898;9.184;2022-11-20T15:11:32;9.00;;;6.50;;
49842;SDS011;55559;48.898;9.184;2022-11-20T15:14:02;4.63;;;4.20;;
49842;SDS011;55559;48.898;9.184;2022-11-20T15:16:34;6.95;;;3.38;;